Airfield :
LOGIN :

Register | Disclaimer

   EN    FR    IT 

 










Legend :    VFR   Marginal VFR   IFR   Intensive IFR   Very Intensive IFR
Visi :
Ceiling :
>= 8 km
>= 3000ft
5 to 8 km
1000 to 3000 ft
1500m to 5 km
500 to 1000 ft
800 to 1500m
200 to 500 ft
< 800m
< 200 ft
Symbols :   Thunderstorms  Fog  Heavy snow  Heavy precipitations  Wind > 20 kt
SIGMETs :     Misc.  Thunderstorms  Icing  Turbulence  Mountain Waves  Volcanic Ashes






- Airport Elevation : 52 ft
- IATA code : IOM


EGNS - Isle of Man

CURRENT METAR :
  • 281250Z 22012KT 170V270 5000 RA BKN003 OVC006 09/08 Q0989 NOSIG

EXPIRED METARs :
  • 281220Z 03013KT 360V060 4000 +RA SCT004 OVC006 06/06 Q0990 BECMG 22016G28KT
  • 281150Z 11011KT 080V140 3500 RA OVC003 05/05 Q0992 BECMG 22016G28KT
  • 281120Z 12018KT 3000 RA OVC004 05/04 Q0993 NOSIG
  • 281050Z 12019KT 4000 RA SCT004 OVC006 05/04 Q0994 NOSIG
  • 281020Z 13022KT 8000 RA BKN007 OVC014 04/04 Q0995 NOSIG
  • 280950Z 13025KT 5000 RA BKN006 OVC014 04/04 Q0996 NOSIG

TAF TAF EGNS
Valid from the 28 at 12:00 until the 28 at 21:00 UTC


281100Z 2812/2821 12018G32KT 9999 SCT004 BKN008
TEMPO 2812/2815 6000 RA -RADZ BKN005
PROB40
TEMPO 2812/2815 2500 +RA RADZ BKN005
BECMG 2813/2815 22016G28KT
PROB30
TEMPO 2815/2821 4000 -DZ -RADZ BKN004



MET'MAP, your aeronautical weather chart ! - Copyright ORBIFLY December 2007 - Disclaimer

ORBIFLY MET'MAP TEAM :

Programming & Development : Alexandra Zaïnal
Concept & original design : Baudouin d'Aumeries
Assistance for programming : Marc-Olivier Méhu
Technical & hardware support : Manuel Goepfert

Contact : metmap@orbifly.com




SOURCES & CREDITS :

   NOAA